sensor_id;sensor_type;location;lat;lon;timestamp;P1;durP1;ratioP1;P2;durP2;ratioP2
9536;SDS011;4807;48.024;11.726;2022-09-24T00:01:39;3.07;;;2.23;;
9536;SDS011;4807;48.024;11.726;2022-09-24T00:04:48;3.97;;;2.80;;
9536;SDS011;4807;48.024;11.726;2022-09-24T00:07:57;5.33;;;2.43;;
9536;SDS011;4807;48.024;11.726;2022-09-24T00:11:06;3.70;;;2.73;;
9536;SDS011;4807;48.024;11.726;2022-09-24T00:14:16;2.60;;;2.40;;
9536;SDS011;4807;48.024;11.726;2022-09-24T00:17:24;2.73;;;2.50;;
9536;SDS011;4807;48.024;11.726;2022-09-24T00:20:33;4.57;;;2.33;;
9536;SDS011;4807;48.024;11.726;2022-09-24T00:23:43;2.90;;;2.60;;
9536;SDS011;4807;48.024;11.726;2022-09-24T00:26:55;2.30;;;2.20;;
9536;SDS011;4807;48.024;11.726;2022-09-24T00:30:03;4.73;;;2.33;;
9536;SDS011;4807;48.024;11.726;2022-09-24T00:33:12;4.47;;;2.60;;
9536;SDS011;4807;48.024;11.726;2022-09-24T00:36:21;2.60;;;2.40;;
9536;SDS011;4807;48.024;11.726;2022-09-24T00:39:31;2.90;;;2.60;;
9536;SDS011;4807;48.024;11.726;2022-09-24T00:42:39;2.60;;;2.40;;
9536;SDS011;4807;48.024;11.726;2022-09-24T00:45:47;2.03;;;1.93;;
9536;SDS011;4807;48.024;11.726;2022-09-24T00:49:00;2.40;;;2.20;;
9536;SDS011;4807;48.024;11.726;2022-09-24T00:52:13;2.43;;;2.23;;
9536;SDS011;4807;48.024;11.726;2022-09-24T00:55:23;2.97;;;2.70;;
9536;SDS011;4807;48.024;11.726;2022-09-24T00:58:33;3.10;;;2.40;;
9536;SDS011;4807;48.024;11.726;2022-09-24T01:01:42;2.17;;;2.00;;
9536;SDS011;4807;48.024;11.726;2022-09-24T01:04:51;2.93;;;2.37;;
9536;SDS011;4807;48.024;11.726;2022-09-24T01:08:02;2.43;;;2.17;;
9536;SDS011;4807;48.024;11.726;2022-09-24T01:11:24;2.73;;;2.10;;
9536;SDS011;4807;48.024;11.726;2022-09-24T01:14:52;2.53;;;1.83;;
9536;SDS011;4807;48.024;11.726;2022-09-24T01:18:22;2.67;;;1.93;;
9536;SDS011;4807;48.024;11.726;2022-09-24T01:21:42;2.33;;;2.13;;
9536;SDS011;4807;48.024;11.726;2022-09-24T01:25:00;2.40;;;2.20;;
9536;SDS011;4807;48.024;11.726;2022-09-24T01:28:21;2.53;;;2.33;;
9536;SDS011;4807;48.024;11.726;2022-09-24T01:31:52;2.60;;;1.90;;
9536;SDS011;4807;48.024;11.726;2022-09-24T01:35:10;2.57;;;2.13;;
9536;SDS011;4807;48.024;11.726;2022-09-24T01:38:27;3.47;;;2.43;;
9536;SDS011;4807;48.024;11.726;2022-09-24T01:41:40;2.60;;;2.27;;
9536;SDS011;4807;48.024;11.726;2022-09-24T01:44:49;2.63;;;2.30;;
9536;SDS011;4807;48.024;11.726;2022-09-24T01:47:59;3.13;;;2.13;;
9536;SDS011;4807;48.024;11.726;2022-09-24T01:51:09;2.60;;;2.10;;
9536;SDS011;4807;48.024;11.726;2022-09-24T01:54:24;2.93;;;2.33;;
9536;SDS011;4807;48.024;11.726;2022-09-24T01:57:38;3.10;;;2.80;;
9536;SDS011;4807;48.024;11.726;2022-09-24T02:01:09;4.77;;;3.00;;
9536;SDS011;4807;48.024;11.726;2022-09-24T02:04:26;3.10;;;2.40;;
9536;SDS011;4807;48.024;11.726;2022-09-24T02:07:41;2.53;;;2.33;;
9536;SDS011;4807;48.024;11.726;2022-09-24T02:11:00;2.53;;;2.33;;
9536;SDS011;4807;48.024;11.726;2022-09-24T02:14:13;2.80;;;2.53;;
9536;SDS011;4807;48.024;11.726;2022-09-24T02:17:23;3.03;;;2.57;;
9536;SDS011;4807;48.024;11.726;2022-09-24T02:20:38;2.17;;;2.07;;
9536;SDS011;4807;48.024;11.726;2022-09-24T02:23:52;2.73;;;2.20;;
9536;SDS011;4807;48.024;11.726;2022-09-24T02:27:06;2.50;;;2.30;;
9536;SDS011;4807;48.024;11.726;2022-09-24T02:30:15;4.10;;;2.17;;
9536;SDS011;4807;48.024;11.726;2022-09-24T02:33:23;3.27;;;2.27;;
9536;SDS011;4807;48.024;11.726;2022-09-24T02:36:54;2.77;;;2.20;;
9536;SDS011;4807;48.024;11.726;2022-09-24T02:40:07;4.10;;;2.30;;
9536;SDS011;4807;48.024;11.726;2022-09-24T02:43:18;2.03;;;1.93;;
9536;SDS011;4807;48.024;11.726;2022-09-24T02:46:27;2.27;;;2.07;;
9536;SDS011;4807;48.024;11.726;2022-09-24T02:49:35;4.10;;;1.97;;
9536;SDS011;4807;48.024;11.726;2022-09-24T02:52:45;2.27;;;2.17;;
9536;SDS011;4807;48.024;11.726;2022-09-24T02:55:53;2.50;;;2.30;;
9536;SDS011;4807;48.024;11.726;2022-09-24T02:59:01;3.30;;;2.27;;
9536;SDS011;4807;48.024;11.726;2022-09-24T03:02:10;3.13;;;2.63;;
9536;SDS011;4807;48.024;11.726;2022-09-24T03:05:19;2.63;;;2.43;;
9536;SDS011;4807;48.024;11.726;2022-09-24T03:08:28;4.03;;;3.33;;
9536;SDS011;4807;48.024;11.726;2022-09-24T03:11:37;4.23;;;2.90;;
9536;SDS011;4807;48.024;11.726;2022-09-24T03:14:46;3.47;;;3.27;;
9536;SDS011;4807;48.024;11.726;2022-09-24T03:17:54;6.50;;;3.47;;
9536;SDS011;4807;48.024;11.726;2022-09-24T03:21:03;4.07;;;3.00;;
9536;SDS011;4807;48.024;11.726;2022-09-24T03:24:15;3.30;;;3.10;;
9536;SDS011;4807;48.024;11.726;2022-09-24T03:27:23;3.40;;;2.60;;
9536;SDS011;4807;48.024;11.726;2022-09-24T03:30:31;3.70;;;2.60;;
9536;SDS011;4807;48.024;11.726;2022-09-24T03:33:57;2.77;;;2.37;;
9536;SDS011;4807;48.024;11.726;2022-09-24T03:37:05;4.23;;;2.17;;
9536;SDS011;4807;48.024;11.726;2022-09-24T03:40:15;3.47;;;2.20;;
9536;SDS011;4807;48.024;11.726;2022-09-24T03:43:24;4.03;;;2.27;;
9536;SDS011;4807;48.024;11.726;2022-09-24T03:46:32;3.23;;;2.10;;
9536;SDS011;4807;48.024;11.726;2022-09-24T03:49:40;2.83;;;2.23;;
9536;SDS011;4807;48.024;11.726;2022-09-24T03:52:48;2.17;;;2.00;;
9536;SDS011;4807;48.024;11.726;2022-09-24T03:55:58;2.37;;;1.97;;
9536;SDS011;4807;48.024;11.726;2022-09-24T03:59:08;2.27;;;2.07;;
9536;SDS011;4807;48.024;11.726;2022-09-24T04:02:17;4.10;;;2.00;;
9536;SDS011;4807;48.024;11.726;2022-09-24T04:05:25;2.63;;;2.00;;
9536;SDS011;4807;48.024;11.726;2022-09-24T04:08:34;2.10;;;2.00;;
9536;SDS011;4807;48.024;11.726;2022-09-24T04:11:44;2.07;;;1.87;;
9536;SDS011;4807;48.024;11.726;2022-09-24T04:14:52;2.17;;;1.70;;
9536;SDS011;4807;48.024;11.726;2022-09-24T04:18:01;2.70;;;2.10;;
9536;SDS011;4807;48.024;11.726;2022-09-24T04:21:09;3.13;;;1.97;;
9536;SDS011;4807;48.024;11.726;2022-09-24T04:24:17;4.17;;;2.03;;
9536;SDS011;4807;48.024;11.726;2022-09-24T04:27:27;2.00;;;1.73;;
9536;SDS011;4807;48.024;11.726;2022-09-24T04:30:36;5.53;;;1.90;;
9536;SDS011;4807;48.024;11.726;2022-09-24T04:33:45;3.17;;;2.00;;
9536;SDS011;4807;48.024;11.726;2022-09-24T04:36:53;2.30;;;1.80;;
9536;SDS011;4807;48.024;11.726;2022-09-24T04:40:02;1.97;;;1.87;;
9536;SDS011;4807;48.024;11.726;2022-09-24T04:43:13;2.87;;;2.00;;
9536;SDS011;4807;48.024;11.726;2022-09-24T04:46:24;3.37;;;2.30;;
9536;SDS011;4807;48.024;11.726;2022-09-24T04:49:32;2.53;;;1.97;;
9536;SDS011;4807;48.024;11.726;2022-09-24T04:52:40;2.40;;;2.30;;
9536;SDS011;4807;48.024;11.726;2022-09-24T04:55:49;2.17;;;2.00;;
9536;SDS011;4807;48.024;11.726;2022-09-24T04:58:58;4.43;;;1.97;;
9536;SDS011;4807;48.024;11.726;2022-09-24T05:02:06;2.47;;;1.90;;
9536;SDS011;4807;48.024;11.726;2022-09-24T05:05:16;2.63;;;2.23;;
9536;SDS011;4807;48.024;11.726;2022-09-24T05:08:24;3.23;;;2.10;;
9536;SDS011;4807;48.024;11.726;2022-09-24T05:11:32;2.30;;;2.10;;
9536;SDS011;4807;48.024;11.726;2022-09-24T05:14:42;3.20;;;1.90;;
9536;SDS011;4807;48.024;11.726;2022-09-24T05:17:50;4.73;;;2.10;;
9536;SDS011;4807;48.024;11.726;2022-09-24T05:20:58;2.47;;;1.77;;
9536;SDS011;4807;48.024;11.726;2022-09-24T05:24:06;2.10;;;1.90;;
9536;SDS011;4807;48.024;11.726;2022-09-24T05:27:15;2.30;;;2.17;;
9536;SDS011;4807;48.024;11.726;2022-09-24T05:30:28;3.70;;;2.73;;
9536;SDS011;4807;48.024;11.726;2022-09-24T05:33:36;4.23;;;2.33;;
9536;SDS011;4807;48.024;11.726;2022-09-24T05:36:44;3.67;;;2.97;;
9536;SDS011;4807;48.024;11.726;2022-09-24T05:39:53;2.53;;;2.33;;
9536;SDS011;4807;48.024;11.726;2022-09-24T05:43:04;5.60;;;3.50;;
9536;SDS011;4807;48.024;11.726;2022-09-24T05:46:14;5.70;;;4.17;;
9536;SDS011;4807;48.024;11.726;2022-09-24T05:49:22;10.40;;;8.57;;
9536;SDS011;4807;48.024;11.726;2022-09-24T05:52:31;21.30;;;11.13;;
9536;SDS011;4807;48.024;11.726;2022-09-24T05:55:41;25.07;;;13.20;;
9536;SDS011;4807;48.024;11.726;2022-09-24T05:58:49;22.13;;;12.10;;
9536;SDS011;4807;48.024;11.726;2022-09-24T06:01:59;17.00;;;9.40;;
9536;SDS011;4807;48.024;11.726;2022-09-24T06:05:08;7.13;;;5.30;;
9536;SDS011;4807;48.024;11.726;2022-09-24T06:08:18;4.20;;;3.30;;
9536;SDS011;4807;48.024;11.726;2022-09-24T06:11:27;5.30;;;3.30;;
9536;SDS011;4807;48.024;11.726;2022-09-24T06:14:45;3.77;;;3.13;;
9536;SDS011;4807;48.024;11.726;2022-09-24T06:17:55;16.30;;;9.40;;
9536;SDS011;4807;48.024;11.726;2022-09-24T06:21:04;37.00;;;20.63;;
9536;SDS011;4807;48.024;11.726;2022-09-24T06:24:14;34.47;;;18.63;;
9536;SDS011;4807;48.024;11.726;2022-09-24T06:27:22;29.77;;;16.73;;
9536;SDS011;4807;48.024;11.726;2022-09-24T06:30:31;11.07;;;6.90;;
9536;SDS011;4807;48.024;11.726;2022-09-24T06:33:44;7.17;;;4.67;;
9536;SDS011;4807;48.024;11.726;2022-09-24T06:36:53;3.73;;;3.20;;
9536;SDS011;4807;48.024;11.726;2022-09-24T06:40:02;6.37;;;3.53;;
9536;SDS011;4807;48.024;11.726;2022-09-24T06:43:12;7.30;;;4.80;;
9536;SDS011;4807;48.024;11.726;2022-09-24T06:46:20;16.60;;;9.93;;
9536;SDS011;4807;48.024;11.726;2022-09-24T06:49:32;18.07;;;10.10;;
9536;SDS011;4807;48.024;11.726;2022-09-24T06:52:40;4.60;;;3.67;;
9536;SDS011;4807;48.024;11.726;2022-09-24T06:55:49;4.13;;;2.43;;
9536;SDS011;4807;48.024;11.726;2022-09-24T06:58:58;2.17;;;1.97;;
9536;SDS011;4807;48.024;11.726;2022-09-24T07:02:07;1.53;;;1.43;;
9536;SDS011;4807;48.024;11.726;2022-09-24T07:05:18;1.87;;;1.57;;
9536;SDS011;4807;48.024;11.726;2022-09-24T07:08:26;1.40;;;1.30;;
9536;SDS011;4807;48.024;11.726;2022-09-24T07:11:34;2.83;;;2.00;;
9536;SDS011;4807;48.024;11.726;2022-09-24T07:14:43;1.60;;;1.50;;
9536;SDS011;4807;48.024;11.726;2022-09-24T07:17:53;2.87;;;1.60;;
9536;SDS011;4807;48.024;11.726;2022-09-24T07:21:04;1.90;;;1.80;;
9536;SDS011;4807;48.024;11.726;2022-09-24T07:24:12;1.90;;;1.67;;
9536;SDS011;4807;48.024;11.726;2022-09-24T07:27:21;3.57;;;2.27;;
9536;SDS011;4807;48.024;11.726;2022-09-24T07:30:29;2.07;;;1.67;;
9536;SDS011;4807;48.024;11.726;2022-09-24T07:33:38;1.60;;;1.50;;
9536;SDS011;4807;48.024;11.726;2022-09-24T07:36:48;1.87;;;1.63;;
9536;SDS011;4807;48.024;11.726;2022-09-24T07:39:56;2.50;;;1.80;;
9536;SDS011;4807;48.024;11.726;2022-09-24T07:43:04;3.10;;;2.00;;
9536;SDS011;4807;48.024;11.726;2022-09-24T07:46:19;2.10;;;1.57;;
9536;SDS011;4807;48.024;11.726;2022-09-24T07:49:29;2.37;;;1.90;;
9536;SDS011;4807;48.024;11.726;2022-09-24T07:52:40;1.67;;;1.57;;
9536;SDS011;4807;48.024;11.726;2022-09-24T07:55:48;1.57;;;1.47;;
9536;SDS011;4807;48.024;11.726;2022-09-24T07:58:58;2.23;;;1.87;;
9536;SDS011;4807;48.024;11.726;2022-09-24T08:02:08;2.90;;;2.10;;
9536;SDS011;4807;48.024;11.726;2022-09-24T08:05:23;2.13;;;1.93;;
9536;SDS011;4807;48.024;11.726;2022-09-24T08:08:33;2.13;;;1.93;;
9536;SDS011;4807;48.024;11.726;2022-09-24T08:11:41;2.57;;;2.00;;
9536;SDS011;4807;48.024;11.726;2022-09-24T08:14:50;1.77;;;1.63;;
9536;SDS011;4807;48.024;11.726;2022-09-24T08:17:59;6.33;;;1.90;;
9536;SDS011;4807;48.024;11.726;2022-09-24T08:21:09;1.83;;;1.57;;
9536;SDS011;4807;48.024;11.726;2022-09-24T08:24:22;4.37;;;2.00;;
9536;SDS011;4807;48.024;11.726;2022-09-24T08:27:30;2.50;;;1.83;;
9536;SDS011;4807;48.024;11.726;2022-09-24T08:30:42;2.43;;;2.23;;
9536;SDS011;4807;48.024;11.726;2022-09-24T08:33:50;3.57;;;3.23;;
9536;SDS011;4807;48.024;11.726;2022-09-24T08:36:59;2.70;;;1.70;;
9536;SDS011;4807;48.024;11.726;2022-09-24T08:40:09;5.03;;;1.60;;
9536;SDS011;4807;48.024;11.726;2022-09-24T08:43:30;1.63;;;1.53;;
9536;SDS011;4807;48.024;11.726;2022-09-24T08:46:53;1.80;;;1.70;;
9536;SDS011;4807;48.024;11.726;2022-09-24T08:50:25;8.50;;;2.10;;
9536;SDS011;4807;48.024;11.726;2022-09-24T08:53:40;1.83;;;1.73;;
9536;SDS011;4807;48.024;11.726;2022-09-24T08:56:58;2.17;;;1.97;;
9536;SDS011;4807;48.024;11.726;2022-09-24T09:00:12;1.67;;;1.50;;
9536;SDS011;4807;48.024;11.726;2022-09-24T09:03:23;2.40;;;2.07;;
9536;SDS011;4807;48.024;11.726;2022-09-24T09:06:51;2.77;;;1.77;;
9536;SDS011;4807;48.024;11.726;2022-09-24T09:10:17;3.07;;;2.00;;
9536;SDS011;4807;48.024;11.726;2022-09-24T09:13:37;2.83;;;2.50;;
9536;SDS011;4807;48.024;11.726;2022-09-24T09:16:51;6.07;;;4.67;;
9536;SDS011;4807;48.024;11.726;2022-09-24T09:20:09;4.83;;;3.70;;
9536;SDS011;4807;48.024;11.726;2022-09-24T09:23:26;4.67;;;3.93;;
9536;SDS011;4807;48.024;11.726;2022-09-24T09:26:42;1.73;;;1.63;;
9536;SDS011;4807;48.024;11.726;2022-09-24T09:29:56;2.17;;;1.20;;
9536;SDS011;4807;48.024;11.726;2022-09-24T09:33:21;2.73;;;1.13;;
9536;SDS011;4807;48.024;11.726;2022-09-24T09:36:53;1.10;;;1.00;;
9536;SDS011;4807;48.024;11.726;2022-09-24T09:40:21;1.33;;;1.23;;
9536;SDS011;4807;48.024;11.726;2022-09-24T09:43:41;1.00;;;0.90;;
9536;SDS011;4807;48.024;11.726;2022-09-24T09:46:52;2.20;;;1.30;;
9536;SDS011;4807;48.024;11.726;2022-09-24T09:50:10;2.53;;;2.33;;
9536;SDS011;4807;48.024;11.726;2022-09-24T09:53:32;1.73;;;1.63;;
9536;SDS011;4807;48.024;11.726;2022-09-24T09:56:41;1.80;;;1.70;;
9536;SDS011;4807;48.024;11.726;2022-09-24T09:59:52;1.03;;;1.03;;
9536;SDS011;4807;48.024;11.726;2022-09-24T10:03:03;1.17;;;0.97;;
9536;SDS011;4807;48.024;11.726;2022-09-24T10:06:13;1.43;;;1.17;;
9536;SDS011;4807;48.024;11.726;2022-09-24T10:09:31;2.40;;;1.20;;
9536;SDS011;4807;48.024;11.726;2022-09-24T10:12:41;3.27;;;1.20;;
9536;SDS011;4807;48.024;11.726;2022-09-24T10:15:49;1.73;;;1.00;;
9536;SDS011;4807;48.024;11.726;2022-09-24T10:19:02;1.30;;;1.20;;
9536;SDS011;4807;48.024;11.726;2022-09-24T10:22:13;1.57;;;1.27;;
9536;SDS011;4807;48.024;11.726;2022-09-24T10:25:29;6.57;;;1.93;;
9536;SDS011;4807;48.024;11.726;2022-09-24T10:28:44;1.53;;;1.40;;
9536;SDS011;4807;48.024;11.726;2022-09-24T10:32:16;1.90;;;1.80;;
9536;SDS011;4807;48.024;11.726;2022-09-24T10:35:30;1.87;;;1.73;;
9536;SDS011;4807;48.024;11.726;2022-09-24T10:38:43;3.67;;;2.67;;
9536;SDS011;4807;48.024;11.726;2022-09-24T10:41:52;3.30;;;1.90;;
9536;SDS011;4807;48.024;11.726;2022-09-24T10:45:05;1.20;;;1.10;;
9536;SDS011;4807;48.024;11.726;2022-09-24T10:48:20;5.93;;;3.23;;
9536;SDS011;4807;48.024;11.726;2022-09-24T10:51:38;2.43;;;1.37;;
9536;SDS011;4807;48.024;11.726;2022-09-24T10:55:06;2.50;;;1.53;;
9536;SDS011;4807;48.024;11.726;2022-09-24T10:58:40;1.80;;;1.70;;
9536;SDS011;4807;48.024;11.726;2022-09-24T11:02:29;2.30;;;1.60;;
9536;SDS011;4807;48.024;11.726;2022-09-24T11:06:18;2.13;;;1.53;;
9536;SDS011;4807;48.024;11.726;2022-09-24T11:09:51;1.43;;;1.33;;
9536;SDS011;4807;48.024;11.726;2022-09-24T11:13:12;1.40;;;1.30;;
9536;SDS011;4807;48.024;11.726;2022-09-24T11:16:37;2.20;;;1.10;;
9536;SDS011;4807;48.024;11.726;2022-09-24T11:20:18;1.70;;;0.87;;
9536;SDS011;4807;48.024;11.726;2022-09-24T11:27:27;4.10;;;1.00;;
9536;SDS011;4807;48.024;11.726;2022-09-24T11:30:57;1.20;;;1.10;;
9536;SDS011;4807;48.024;11.726;2022-09-24T11:34:27;1.57;;;1.00;;
9536;SDS011;4807;48.024;11.726;2022-09-24T11:37:56;1.67;;;1.23;;
9536;SDS011;4807;48.024;11.726;2022-09-24T11:41:15;3.03;;;1.13;;
9536;SDS011;4807;48.024;11.726;2022-09-24T11:44:51;1.57;;;1.47;;
9536;SDS011;4807;48.024;11.726;2022-09-24T11:48:34;5.00;;;2.10;;
9536;SDS011;4807;48.024;11.726;2022-09-24T11:52:02;2.33;;;1.60;;
9536;SDS011;4807;48.024;11.726;2022-09-24T11:55:18;2.77;;;2.17;;
9536;SDS011;4807;48.024;11.726;2022-09-24T11:58:42;2.10;;;2.00;;
9536;SDS011;4807;48.024;11.726;2022-09-24T12:01:57;1.93;;;1.80;;
9536;SDS011;4807;48.024;11.726;2022-09-24T12:05:18;2.60;;;2.13;;
9536;SDS011;4807;48.024;11.726;2022-09-24T12:08:38;2.63;;;2.00;;
9536;SDS011;4807;48.024;11.726;2022-09-24T12:11:54;2.03;;;1.93;;
9536;SDS011;4807;48.024;11.726;2022-09-24T12:15:15;2.50;;;2.30;;
9536;SDS011;4807;48.024;11.726;2022-09-24T12:18:30;2.57;;;2.37;;
9536;SDS011;4807;48.024;11.726;2022-09-24T12:21:48;4.10;;;2.30;;
9536;SDS011;4807;48.024;11.726;2022-09-24T12:25:00;3.20;;;2.43;;
9536;SDS011;4807;48.024;11.726;2022-09-24T12:28:08;3.23;;;2.90;;
9536;SDS011;4807;48.024;11.726;2022-09-24T12:31:44;2.80;;;2.30;;
9536;SDS011;4807;48.024;11.726;2022-09-24T12:35:30;2.63;;;2.10;;
9536;SDS011;4807;48.024;11.726;2022-09-24T12:38:56;2.67;;;2.47;;
9536;SDS011;4807;48.024;11.726;2022-09-24T12:42:11;2.67;;;2.47;;
9536;SDS011;4807;48.024;11.726;2022-09-24T12:45:22;3.00;;;2.77;;
9536;SDS011;4807;48.024;11.726;2022-09-24T12:48:35;2.80;;;2.60;;
9536;SDS011;4807;48.024;11.726;2022-09-24T12:51:46;3.00;;;2.70;;
9536;SDS011;4807;48.024;11.726;2022-09-24T12:54:59;2.53;;;2.33;;
9536;SDS011;4807;48.024;11.726;2022-09-24T12:58:22;3.93;;;3.03;;
9536;SDS011;4807;48.024;11.726;2022-09-24T13:01:37;2.70;;;2.50;;
9536;SDS011;4807;48.024;11.726;2022-09-24T13:04:50;3.50;;;2.73;;
9536;SDS011;4807;48.024;11.726;2022-09-24T13:08:23;5.50;;;2.73;;
9536;SDS011;4807;48.024;11.726;2022-09-24T13:11:33;4.47;;;2.73;;
9536;SDS011;4807;48.024;11.726;2022-09-24T13:14:46;3.30;;;3.00;;
9536;SDS011;4807;48.024;11.726;2022-09-24T13:18:03;2.80;;;2.53;;
9536;SDS011;4807;48.024;11.726;2022-09-24T13:21:28;2.70;;;2.50;;
9536;SDS011;4807;48.024;11.726;2022-09-24T13:24:44;2.97;;;2.63;;
9536;SDS011;4807;48.024;11.726;2022-09-24T13:27:56;2.57;;;2.37;;
9536;SDS011;4807;48.024;11.726;2022-09-24T13:31:09;2.53;;;2.33;;
9536;SDS011;4807;48.024;11.726;2022-09-24T13:34:30;2.93;;;2.73;;
9536;SDS011;4807;48.024;11.726;2022-09-24T13:37:42;2.60;;;2.40;;
9536;SDS011;4807;48.024;11.726;2022-09-24T13:41:00;2.47;;;2.27;;
9536;SDS011;4807;48.024;11.726;2022-09-24T13:44:27;3.47;;;2.30;;
9536;SDS011;4807;48.024;11.726;2022-09-24T13:47:40;2.60;;;2.40;;
9536;SDS011;4807;48.024;11.726;2022-09-24T13:50:54;2.33;;;2.07;;
9536;SDS011;4807;48.024;11.726;2022-09-24T13:54:06;1.77;;;1.67;;
9536;SDS011;4807;48.024;11.726;2022-09-24T13:57:25;1.93;;;1.73;;
9536;SDS011;4807;48.024;11.726;2022-09-24T14:00:35;2.60;;;2.20;;
9536;SDS011;4807;48.024;11.726;2022-09-24T14:03:52;2.93;;;1.90;;
9536;SDS011;4807;48.024;11.726;2022-09-24T14:07:04;3.03;;;2.27;;
9536;SDS011;4807;48.024;11.726;2022-09-24T14:10:14;3.00;;;2.80;;
9536;SDS011;4807;48.024;11.726;2022-09-24T14:13:22;2.67;;;2.47;;
9536;SDS011;4807;48.024;11.726;2022-09-24T14:16:32;2.60;;;2.40;;
9536;SDS011;4807;48.024;11.726;2022-09-24T14:19:40;3.20;;;2.13;;
9536;SDS011;4807;48.024;11.726;2022-09-24T14:22:50;2.40;;;2.10;;
9536;SDS011;4807;48.024;11.726;2022-09-24T14:26:00;3.13;;;2.30;;
9536;SDS011;4807;48.024;11.726;2022-09-24T14:29:11;2.90;;;2.63;;
9536;SDS011;4807;48.024;11.726;2022-09-24T14:32:26;3.10;;;2.03;;
9536;SDS011;4807;48.024;11.726;2022-09-24T14:35:38;2.30;;;2.10;;
9536;SDS011;4807;48.024;11.726;2022-09-24T14:38:54;2.37;;;2.17;;
9536;SDS011;4807;48.024;11.726;2022-09-24T14:42:10;3.00;;;2.37;;
9536;SDS011;4807;48.024;11.726;2022-09-24T14:45:29;2.37;;;2.07;;
9536;SDS011;4807;48.024;11.726;2022-09-24T14:48:43;2.33;;;2.00;;
9536;SDS011;4807;48.024;11.726;2022-09-24T14:51:52;3.90;;;1.80;;
9536;SDS011;4807;48.024;11.726;2022-09-24T14:55:12;2.67;;;2.17;;
9536;SDS011;4807;48.024;11.726;2022-09-24T14:58:34;2.13;;;1.87;;
9536;SDS011;4807;48.024;11.726;2022-09-24T15:01:43;2.63;;;2.30;;
9536;SDS011;4807;48.024;11.726;2022-09-24T15:04:52;4.17;;;2.60;;
9536;SDS011;4807;48.024;11.726;2022-09-24T15:08:16;3.67;;;2.30;;
9536;SDS011;4807;48.024;11.726;2022-09-24T15:11:34;2.90;;;1.90;;
9536;SDS011;4807;48.024;11.726;2022-09-24T15:14:53;3.30;;;1.70;;
9536;SDS011;4807;48.024;11.726;2022-09-24T15:18:06;2.80;;;1.80;;
9536;SDS011;4807;48.024;11.726;2022-09-24T15:21:17;1.93;;;1.83;;
9536;SDS011;4807;48.024;11.726;2022-09-24T15:24:26;2.43;;;1.77;;
9536;SDS011;4807;48.024;11.726;2022-09-24T15:27:35;4.00;;;2.13;;
9536;SDS011;4807;48.024;11.726;2022-09-24T15:30:47;2.70;;;2.10;;
9536;SDS011;4807;48.024;11.726;2022-09-24T15:33:55;3.03;;;2.43;;
9536;SDS011;4807;48.024;11.726;2022-09-24T15:37:04;2.40;;;2.20;;
9536;SDS011;4807;48.024;11.726;2022-09-24T15:40:17;2.40;;;2.30;;
9536;SDS011;4807;48.024;11.726;2022-09-24T15:43:29;2.50;;;2.17;;
9536;SDS011;4807;48.024;11.726;2022-09-24T15:46:39;4.37;;;2.73;;
9536;SDS011;4807;48.024;11.726;2022-09-24T15:49:48;3.40;;;2.63;;
9536;SDS011;4807;48.024;11.726;2022-09-24T15:52:57;5.57;;;2.40;;
9536;SDS011;4807;48.024;11.726;2022-09-24T15:56:08;2.83;;;2.63;;
9536;SDS011;4807;48.024;11.726;2022-09-24T15:59:17;2.80;;;2.60;;
9536;SDS011;4807;48.024;11.726;2022-09-24T16:02:29;2.30;;;2.20;;
9536;SDS011;4807;48.024;11.726;2022-09-24T16:05:39;3.13;;;2.90;;
9536;SDS011;4807;48.024;11.726;2022-09-24T16:08:48;2.63;;;2.43;;
9536;SDS011;4807;48.024;11.726;2022-09-24T16:11:56;3.17;;;2.87;;
9536;SDS011;4807;48.024;11.726;2022-09-24T16:15:04;2.83;;;2.63;;
9536;SDS011;4807;48.024;11.726;2022-09-24T16:18:15;2.97;;;2.73;;
9536;SDS011;4807;48.024;11.726;2022-09-24T16:21:24;2.97;;;2.77;;
9536;SDS011;4807;48.024;11.726;2022-09-24T16:24:35;3.93;;;2.60;;
9536;SDS011;4807;48.024;11.726;2022-09-24T16:27:44;2.97;;;2.73;;
9536;SDS011;4807;48.024;11.726;2022-09-24T16:30:52;3.30;;;2.97;;
9536;SDS011;4807;48.024;11.726;2022-09-24T16:34:03;2.60;;;2.40;;
9536;SDS011;4807;48.024;11.726;2022-09-24T16:37:12;3.27;;;2.97;;
9536;SDS011;4807;48.024;11.726;2022-09-24T16:40:27;4.10;;;3.30;;
9536;SDS011;4807;48.024;11.726;2022-09-24T16:43:36;3.73;;;3.03;;
9536;SDS011;4807;48.024;11.726;2022-09-24T16:46:45;3.23;;;2.93;;
9536;SDS011;4807;48.024;11.726;2022-09-24T16:49:55;4.40;;;3.50;;
9536;SDS011;4807;48.024;11.726;2022-09-24T16:53:04;4.80;;;4.40;;
9536;SDS011;4807;48.024;11.726;2022-09-24T16:56:13;7.43;;;5.23;;
9536;SDS011;4807;48.024;11.726;2022-09-24T16:59:23;7.33;;;6.03;;
9536;SDS011;4807;48.024;11.726;2022-09-24T17:02:32;5.90;;;5.40;;
9536;SDS011;4807;48.024;11.726;2022-09-24T17:05:42;7.07;;;6.37;;
9536;SDS011;4807;48.024;11.726;2022-09-24T17:08:50;8.90;;;7.33;;
9536;SDS011;4807;48.024;11.726;2022-09-24T17:12:17;9.40;;;7.87;;
9536;SDS011;4807;48.024;11.726;2022-09-24T17:15:25;5.97;;;5.37;;
9536;SDS011;4807;48.024;11.726;2022-09-24T17:18:34;5.30;;;4.90;;
9536;SDS011;4807;48.024;11.726;2022-09-24T17:21:44;5.67;;;5.07;;
9536;SDS011;4807;48.024;11.726;2022-09-24T17:24:55;5.87;;;5.37;;
9536;SDS011;4807;48.024;11.726;2022-09-24T17:28:03;4.93;;;4.47;;
9536;SDS011;4807;48.024;11.726;2022-09-24T17:31:13;4.47;;;3.70;;
9536;SDS011;4807;48.024;11.726;2022-09-24T17:34:23;5.93;;;5.10;;
9536;SDS011;4807;48.024;11.726;2022-09-24T17:37:33;6.43;;;5.83;;
9536;SDS011;4807;48.024;11.726;2022-09-24T17:40:41;6.50;;;5.73;;
9536;SDS011;4807;48.024;11.726;2022-09-24T17:44:00;5.23;;;4.73;;
9536;SDS011;4807;48.024;11.726;2022-09-24T17:47:08;6.00;;;4.57;;
9536;SDS011;4807;48.024;11.726;2022-09-24T17:50:16;5.83;;;5.17;;
9536;SDS011;4807;48.024;11.726;2022-09-24T17:53:28;9.70;;;6.77;;
9536;SDS011;4807;48.024;11.726;2022-09-24T17:56:38;7.80;;;6.60;;
9536;SDS011;4807;48.024;11.726;2022-09-24T17:59:47;8.00;;;7.20;;
9536;SDS011;4807;48.024;11.726;2022-09-24T18:02:55;8.70;;;7.80;;
9536;SDS011;4807;48.024;11.726;2022-09-24T18:06:04;7.90;;;7.10;;
9536;SDS011;4807;48.024;11.726;2022-09-24T18:09:17;7.17;;;6.57;;
9536;SDS011;4807;48.024;11.726;2022-09-24T18:12:26;7.37;;;5.90;;
9536;SDS011;4807;48.024;11.726;2022-09-24T18:15:34;7.43;;;5.30;;
9536;SDS011;4807;48.024;11.726;2022-09-24T18:18:44;5.30;;;4.80;;
9536;SDS011;4807;48.024;11.726;2022-09-24T18:21:54;4.93;;;4.37;;
9536;SDS011;4807;48.024;11.726;2022-09-24T18:25:07;4.87;;;4.23;;
9536;SDS011;4807;48.024;11.726;2022-09-24T18:28:17;3.93;;;3.53;;
9536;SDS011;4807;48.024;11.726;2022-09-24T18:31:26;4.47;;;3.60;;
9536;SDS011;4807;48.024;11.726;2022-09-24T18:34:40;4.20;;;3.87;;
9536;SDS011;4807;48.024;11.726;2022-09-24T18:37:48;5.73;;;5.23;;
9536;SDS011;4807;48.024;11.726;2022-09-24T18:40:58;7.63;;;6.80;;
9536;SDS011;4807;48.024;11.726;2022-09-24T18:44:08;5.87;;;4.80;;
9536;SDS011;4807;48.024;11.726;2022-09-24T18:47:17;5.40;;;4.83;;
9536;SDS011;4807;48.024;11.726;2022-09-24T18:50:26;6.10;;;4.77;;
9536;SDS011;4807;48.024;11.726;2022-09-24T18:53:35;5.63;;;5.23;;
9536;SDS011;4807;48.024;11.726;2022-09-24T18:56:45;6.03;;;5.43;;
9536;SDS011;4807;48.024;11.726;2022-09-24T18:59:53;5.60;;;5.13;;
9536;SDS011;4807;48.024;11.726;2022-09-24T19:03:03;5.67;;;4.93;;
9536;SDS011;4807;48.024;11.726;2022-09-24T19:06:12;5.60;;;4.93;;
9536;SDS011;4807;48.024;11.726;2022-09-24T19:09:21;4.87;;;4.47;;
9536;SDS011;4807;48.024;11.726;2022-09-24T19:12:36;6.80;;;4.37;;
9536;SDS011;4807;48.024;11.726;2022-09-24T19:15:48;4.60;;;4.20;;
9536;SDS011;4807;48.024;11.726;2022-09-24T19:18:57;5.33;;;4.83;;
9536;SDS011;4807;48.024;11.726;2022-09-24T19:22:08;6.13;;;4.63;;
9536;SDS011;4807;48.024;11.726;2022-09-24T19:25:16;5.53;;;4.13;;
9536;SDS011;4807;48.024;11.726;2022-09-24T19:28:27;4.73;;;4.30;;
9536;SDS011;4807;48.024;11.726;2022-09-24T19:31:36;4.77;;;4.37;;
9536;SDS011;4807;48.024;11.726;2022-09-24T19:34:47;4.93;;;4.43;;
9536;SDS011;4807;48.024;11.726;2022-09-24T19:37:56;4.27;;;3.97;;
9536;SDS011;4807;48.024;11.726;2022-09-24T19:41:05;5.37;;;4.87;;
9536;SDS011;4807;48.024;11.726;2022-09-24T19:44:17;5.10;;;4.47;;